sensor_id;sensor_type;location;lat;lon;timestamp;P1;durP1;ratioP1;P2;durP2;ratioP2
62848;SDS011;48941;49.516;8.286;2022-12-18T00:00:02;52.00;;;16.42;;
62848;SDS011;48941;49.516;8.286;2022-12-18T00:02:31;41.63;;;15.35;;
62848;SDS011;48941;49.516;8.286;2022-12-18T00:04:59;46.85;;;16.42;;
62848;SDS011;48941;49.516;8.286;2022-12-18T00:07:28;49.35;;;16.40;;
62848;SDS011;48941;49.516;8.286;2022-12-18T00:09:56;45.67;;;15.98;;
62848;SDS011;48941;49.516;8.286;2022-12-18T00:12:23;40.75;;;15.75;;
62848;SDS011;48941;49.516;8.286;2022-12-18T00:14:51;45.47;;;16.40;;
62848;SDS011;48941;49.516;8.286;2022-12-18T00:17:19;43.10;;;16.02;;
62848;SDS011;48941;49.516;8.286;2022-12-18T00:19:47;43.15;;;16.27;;
62848;SDS011;48941;49.516;8.286;2022-12-18T00:22:15;45.40;;;16.45;;
62848;SDS011;48941;49.516;8.286;2022-12-18T00:24:46;43.60;;;15.38;;
62848;SDS011;48941;49.516;8.286;2022-12-18T00:27:14;45.80;;;15.60;;
62848;SDS011;48941;49.516;8.286;2022-12-18T00:29:42;42.25;;;15.48;;
62848;SDS011;48941;49.516;8.286;2022-12-18T00:32:10;51.72;;;16.10;;
62848;SDS011;48941;49.516;8.286;2022-12-18T00:34:38;43.47;;;16.58;;
62848;SDS011;48941;49.516;8.286;2022-12-18T00:37:05;41.78;;;15.55;;
62848;SDS011;48941;49.516;8.286;2022-12-18T00:39:33;45.80;;;17.25;;
62848;SDS011;48941;49.516;8.286;2022-12-18T00:42:02;41.72;;;17.42;;
62848;SDS011;48941;49.516;8.286;2022-12-18T00:47:12;40.15;;;15.13;;
62848;SDS011;48941;49.516;8.286;2022-12-18T00:49:39;46.05;;;16.15;;
62848;SDS011;48941;49.516;8.286;2022-12-18T00:52:07;49.45;;;15.45;;
62848;SDS011;48941;49.516;8.286;2022-12-18T00:54:36;45.08;;;16.60;;
62848;SDS011;48941;49.516;8.286;2022-12-18T00:57:05;46.28;;;16.90;;
62848;SDS011;48941;49.516;8.286;2022-12-18T00:59:33;45.92;;;16.75;;
62848;SDS011;48941;49.516;8.286;2022-12-18T01:02:00;45.30;;;16.92;;
62848;SDS011;48941;49.516;8.286;2022-12-18T01:04:30;45.75;;;17.27;;
62848;SDS011;48941;49.516;8.286;2022-12-18T01:06:58;52.05;;;17.35;;
62848;SDS011;48941;49.516;8.286;2022-12-18T01:09:26;56.45;;;18.70;;
62848;SDS011;48941;49.516;8.286;2022-12-18T01:11:54;55.65;;;19.23;;
62848;SDS011;48941;49.516;8.286;2022-12-18T01:14:23;52.42;;;18.23;;
62848;SDS011;48941;49.516;8.286;2022-12-18T01:16:51;45.95;;;17.05;;
62848;SDS011;48941;49.516;8.286;2022-12-18T01:19:19;50.05;;;18.23;;
62848;SDS011;48941;49.516;8.286;2022-12-18T01:21:47;52.00;;;19.15;;
62848;SDS011;48941;49.516;8.286;2022-12-18T01:24:15;49.92;;;18.13;;
62848;SDS011;48941;49.516;8.286;2022-12-18T01:26:43;48.80;;;16.70;;
62848;SDS011;48941;49.516;8.286;2022-12-18T01:29:10;47.38;;;16.55;;
62848;SDS011;48941;49.516;8.286;2022-12-18T01:31:40;49.20;;;17.30;;
62848;SDS011;48941;49.516;8.286;2022-12-18T01:34:08;54.25;;;17.73;;
62848;SDS011;48941;49.516;8.286;2022-12-18T01:36:37;48.45;;;16.48;;
62848;SDS011;48941;49.516;8.286;2022-12-18T01:39:06;46.45;;;16.08;;
62848;SDS011;48941;49.516;8.286;2022-12-18T01:41:37;49.25;;;17.30;;
62848;SDS011;48941;49.516;8.286;2022-12-18T01:47:22;45.00;;;15.45;;
62848;SDS011;48941;49.516;8.286;2022-12-18T01:49:52;43.53;;;15.80;;
62848;SDS011;48941;49.516;8.286;2022-12-18T01:52:22;45.47;;;15.55;;
62848;SDS011;48941;49.516;8.286;2022-12-18T01:54:53;41.92;;;14.60;;
62848;SDS011;48941;49.516;8.286;2022-12-18T01:57:22;45.00;;;16.10;;
62848;SDS011;48941;49.516;8.286;2022-12-18T01:59:52;48.50;;;16.13;;
62848;SDS011;48941;49.516;8.286;2022-12-18T02:02:25;47.63;;;16.80;;
62848;SDS011;48941;49.516;8.286;2022-12-18T02:04:55;46.28;;;16.25;;
62848;SDS011;48941;49.516;8.286;2022-12-18T02:07:24;45.72;;;16.63;;
62848;SDS011;48941;49.516;8.286;2022-12-18T02:09:59;42.40;;;15.90;;
62848;SDS011;48941;49.516;8.286;2022-12-18T02:12:30;44.17;;;15.70;;
62848;SDS011;48941;49.516;8.286;2022-12-18T02:15:10;44.40;;;16.10;;
62848;SDS011;48941;49.516;8.286;2022-12-18T02:17:46;54.75;;;16.45;;
62848;SDS011;48941;49.516;8.286;2022-12-18T02:20:20;50.50;;;15.98;;
62848;SDS011;48941;49.516;8.286;2022-12-18T02:22:58;44.47;;;16.08;;
62848;SDS011;48941;49.516;8.286;2022-12-18T02:28:45;40.97;;;14.93;;
62848;SDS011;48941;49.516;8.286;2022-12-18T02:31:17;43.58;;;14.75;;
62848;SDS011;48941;49.516;8.286;2022-12-18T02:33:51;45.00;;;15.00;;
62848;SDS011;48941;49.516;8.286;2022-12-18T02:36:25;46.08;;;15.65;;
62848;SDS011;48941;49.516;8.286;2022-12-18T02:38:55;43.50;;;16.25;;
62848;SDS011;48941;49.516;8.286;2022-12-18T02:41:25;48.33;;;16.63;;
62848;SDS011;48941;49.516;8.286;2022-12-18T02:43:58;49.53;;;15.75;;
62848;SDS011;48941;49.516;8.286;2022-12-18T02:46:31;42.05;;;15.25;;
62848;SDS011;48941;49.516;8.286;2022-12-18T02:49:04;52.47;;;16.75;;
62848;SDS011;48941;49.516;8.286;2022-12-18T02:51:41;47.80;;;16.00;;
62848;SDS011;48941;49.516;8.286;2022-12-18T02:54:18;51.50;;;14.68;;
62848;SDS011;48941;49.516;8.286;2022-12-18T02:56:54;45.42;;;15.85;;
62848;SDS011;48941;49.516;8.286;2022-12-18T02:59:25;44.20;;;14.80;;
62848;SDS011;48941;49.516;8.286;2022-12-18T03:02:02;44.40;;;16.02;;
62848;SDS011;48941;49.516;8.286;2022-12-18T03:04:36;49.88;;;16.38;;
62848;SDS011;48941;49.516;8.286;2022-12-18T03:07:12;45.33;;;15.40;;
62848;SDS011;48941;49.516;8.286;2022-12-18T03:09:46;48.83;;;16.15;;
62848;SDS011;48941;49.516;8.286;2022-12-18T03:12:18;53.77;;;16.83;;
62848;SDS011;48941;49.516;8.286;2022-12-18T03:14:54;52.17;;;15.60;;
62848;SDS011;48941;49.516;8.286;2022-12-18T03:17:27;49.25;;;17.52;;
62848;SDS011;48941;49.516;8.286;2022-12-18T03:19:58;39.25;;;15.00;;
62848;SDS011;48941;49.516;8.286;2022-12-18T03:22:30;65.28;;;17.92;;
62848;SDS011;48941;49.516;8.286;2022-12-18T03:25:01;49.10;;;14.77;;
62848;SDS011;48941;49.516;8.286;2022-12-18T03:27:33;46.85;;;16.02;;
62848;SDS011;48941;49.516;8.286;2022-12-18T03:30:06;47.35;;;16.10;;
62848;SDS011;48941;49.516;8.286;2022-12-18T03:32:39;49.28;;;16.30;;
62848;SDS011;48941;49.516;8.286;2022-12-18T03:35:10;53.85;;;17.95;;
62848;SDS011;48941;49.516;8.286;2022-12-18T03:37:46;47.47;;;16.58;;
62848;SDS011;48941;49.516;8.286;2022-12-18T03:40:14;54.60;;;17.88;;
62848;SDS011;48941;49.516;8.286;2022-12-18T03:42:44;53.20;;;16.55;;
62848;SDS011;48941;49.516;8.286;2022-12-18T03:45:20;57.88;;;18.85;;
62848;SDS011;48941;49.516;8.286;2022-12-18T03:47:57;55.97;;;18.33;;
62848;SDS011;48941;49.516;8.286;2022-12-18T03:50:30;51.28;;;18.10;;
62848;SDS011;48941;49.516;8.286;2022-12-18T03:53:08;47.63;;;16.80;;
62848;SDS011;48941;49.516;8.286;2022-12-18T03:55:44;50.78;;;16.58;;
62848;SDS011;48941;49.516;8.286;2022-12-18T03:58:15;49.78;;;16.60;;
62848;SDS011;48941;49.516;8.286;2022-12-18T04:00:48;48.22;;;15.32;;
62848;SDS011;48941;49.516;8.286;2022-12-18T04:03:19;56.25;;;18.15;;
62848;SDS011;48941;49.516;8.286;2022-12-18T04:06:03;50.40;;;16.70;;
62848;SDS011;48941;49.516;8.286;2022-12-18T04:08:32;58.00;;;17.42;;
62848;SDS011;48941;49.516;8.286;2022-12-18T04:11:02;59.67;;;17.08;;
62848;SDS011;48941;49.516;8.286;2022-12-18T04:13:31;46.63;;;15.65;;
62848;SDS011;48941;49.516;8.286;2022-12-18T04:16:03;47.03;;;16.88;;
62848;SDS011;48941;49.516;8.286;2022-12-18T04:18:31;57.00;;;16.35;;
62848;SDS011;48941;49.516;8.286;2022-12-18T04:20:59;50.67;;;16.42;;
62848;SDS011;48941;49.516;8.286;2022-12-18T04:23:27;50.63;;;18.05;;
62848;SDS011;48941;49.516;8.286;2022-12-18T04:25:55;46.35;;;16.33;;
62848;SDS011;48941;49.516;8.286;2022-12-18T04:28:23;50.78;;;17.30;;
62848;SDS011;48941;49.516;8.286;2022-12-18T04:30:51;48.85;;;16.00;;
62848;SDS011;48941;49.516;8.286;2022-12-18T04:33:20;46.42;;;15.10;;
62848;SDS011;48941;49.516;8.286;2022-12-18T04:35:48;51.03;;;16.33;;
62848;SDS011;48941;49.516;8.286;2022-12-18T04:38:16;53.22;;;16.50;;
62848;SDS011;48941;49.516;8.286;2022-12-18T04:40:43;46.53;;;15.38;;
62848;SDS011;48941;49.516;8.286;2022-12-18T04:43:11;55.25;;;16.10;;
62848;SDS011;48941;49.516;8.286;2022-12-18T04:45:39;48.33;;;16.33;;
62848;SDS011;48941;49.516;8.286;2022-12-18T04:48:07;48.65;;;15.82;;
62848;SDS011;48941;49.516;8.286;2022-12-18T04:50:37;48.05;;;15.27;;
62848;SDS011;48941;49.516;8.286;2022-12-18T04:53:06;42.33;;;15.07;;
62848;SDS011;48941;49.516;8.286;2022-12-18T04:55:35;42.78;;;15.90;;
62848;SDS011;48941;49.516;8.286;2022-12-18T04:58:04;41.03;;;15.45;;
62848;SDS011;48941;49.516;8.286;2022-12-18T05:00:32;45.17;;;15.45;;
62848;SDS011;48941;49.516;8.286;2022-12-18T05:03:00;45.60;;;15.98;;
62848;SDS011;48941;49.516;8.286;2022-12-18T05:05:28;49.28;;;17.70;;
62848;SDS011;48941;49.516;8.286;2022-12-18T05:07:58;47.13;;;15.40;;
62848;SDS011;48941;49.516;8.286;2022-12-18T05:10:26;50.70;;;17.70;;
62848;SDS011;48941;49.516;8.286;2022-12-18T05:13:01;45.90;;;16.23;;
62848;SDS011;48941;49.516;8.286;2022-12-18T05:15:29;46.20;;;15.70;;
62848;SDS011;48941;49.516;8.286;2022-12-18T05:17:58;40.53;;;14.75;;
62848;SDS011;48941;49.516;8.286;2022-12-18T05:20:26;52.88;;;15.95;;
62848;SDS011;48941;49.516;8.286;2022-12-18T05:22:55;40.33;;;14.73;;
62848;SDS011;48941;49.516;8.286;2022-12-18T05:25:24;46.10;;;15.68;;
62848;SDS011;48941;49.516;8.286;2022-12-18T05:27:52;47.65;;;16.15;;
62848;SDS011;48941;49.516;8.286;2022-12-18T05:30:20;53.03;;;16.35;;
62848;SDS011;48941;49.516;8.286;2022-12-18T05:32:48;42.00;;;14.50;;
62848;SDS011;48941;49.516;8.286;2022-12-18T05:35:16;43.28;;;15.63;;
62848;SDS011;48941;49.516;8.286;2022-12-18T05:37:44;46.22;;;16.25;;
62848;SDS011;48941;49.516;8.286;2022-12-18T05:40:12;43.30;;;15.38;;
62848;SDS011;48941;49.516;8.286;2022-12-18T05:42:41;46.38;;;16.20;;
62848;SDS011;48941;49.516;8.286;2022-12-18T05:45:09;49.55;;;18.10;;
62848;SDS011;48941;49.516;8.286;2022-12-18T05:47:37;37.60;;;15.95;;
62848;SDS011;48941;49.516;8.286;2022-12-18T05:50:05;53.67;;;17.67;;
62848;SDS011;48941;49.516;8.286;2022-12-18T05:52:34;50.05;;;16.60;;
62848;SDS011;48941;49.516;8.286;2022-12-18T05:55:02;50.85;;;16.45;;
62848;SDS011;48941;49.516;8.286;2022-12-18T05:57:31;53.20;;;16.42;;
62848;SDS011;48941;49.516;8.286;2022-12-18T06:00:00;55.22;;;17.35;;
62848;SDS011;48941;49.516;8.286;2022-12-18T06:02:28;47.20;;;15.60;;
62848;SDS011;48941;49.516;8.286;2022-12-18T06:04:55;47.85;;;15.45;;
62848;SDS011;48941;49.516;8.286;2022-12-18T06:07:23;52.15;;;15.90;;
62848;SDS011;48941;49.516;8.286;2022-12-18T06:09:51;52.53;;;17.65;;
62848;SDS011;48941;49.516;8.286;2022-12-18T06:12:19;50.10;;;15.93;;
62848;SDS011;48941;49.516;8.286;2022-12-18T06:14:47;44.75;;;16.08;;
62848;SDS011;48941;49.516;8.286;2022-12-18T06:17:16;44.78;;;15.27;;
62848;SDS011;48941;49.516;8.286;2022-12-18T06:19:44;48.33;;;16.23;;
62848;SDS011;48941;49.516;8.286;2022-12-18T06:22:12;40.95;;;15.15;;
62848;SDS011;48941;49.516;8.286;2022-12-18T06:24:39;42.50;;;15.10;;
62848;SDS011;48941;49.516;8.286;2022-12-18T06:27:08;52.30;;;17.75;;
62848;SDS011;48941;49.516;8.286;2022-12-18T06:29:35;44.70;;;15.85;;
62848;SDS011;48941;49.516;8.286;2022-12-18T06:32:03;48.55;;;16.38;;
62848;SDS011;48941;49.516;8.286;2022-12-18T06:34:33;49.63;;;16.30;;
62848;SDS011;48941;49.516;8.286;2022-12-18T06:37:01;44.63;;;15.88;;
62848;SDS011;48941;49.516;8.286;2022-12-18T06:39:29;54.08;;;17.40;;
62848;SDS011;48941;49.516;8.286;2022-12-18T06:41:57;50.53;;;17.00;;
62848;SDS011;48941;49.516;8.286;2022-12-18T06:44:25;43.80;;;16.75;;
62848;SDS011;48941;49.516;8.286;2022-12-18T06:46:53;48.50;;;16.60;;
62848;SDS011;48941;49.516;8.286;2022-12-18T06:49:21;45.92;;;16.52;;
62848;SDS011;48941;49.516;8.286;2022-12-18T06:51:57;48.75;;;16.67;;
62848;SDS011;48941;49.516;8.286;2022-12-18T06:54:24;58.63;;;17.85;;
62848;SDS011;48941;49.516;8.286;2022-12-18T06:56:52;53.97;;;18.10;;
62848;SDS011;48941;49.516;8.286;2022-12-18T06:59:22;43.97;;;16.30;;
62848;SDS011;48941;49.516;8.286;2022-12-18T07:01:51;51.47;;;16.85;;
62848;SDS011;48941;49.516;8.286;2022-12-18T07:04:19;48.88;;;17.67;;
62848;SDS011;48941;49.516;8.286;2022-12-18T07:06:46;49.35;;;16.80;;
62848;SDS011;48941;49.516;8.286;2022-12-18T07:09:16;46.08;;;15.77;;
62848;SDS011;48941;49.516;8.286;2022-12-18T07:11:43;53.38;;;18.35;;
62848;SDS011;48941;49.516;8.286;2022-12-18T07:14:11;50.92;;;18.52;;
62848;SDS011;48941;49.516;8.286;2022-12-18T07:16:39;50.88;;;17.50;;
62848;SDS011;48941;49.516;8.286;2022-12-18T07:19:07;50.75;;;18.27;;
62848;SDS011;48941;49.516;8.286;2022-12-18T07:21:35;61.35;;;16.02;;
62848;SDS011;48941;49.516;8.286;2022-12-18T07:24:03;45.58;;;16.98;;
62848;SDS011;48941;49.516;8.286;2022-12-18T07:26:33;49.40;;;18.42;;
62848;SDS011;48941;49.516;8.286;2022-12-18T07:29:01;56.20;;;17.77;;
62848;SDS011;48941;49.516;8.286;2022-12-18T07:31:28;44.72;;;17.30;;
62848;SDS011;48941;49.516;8.286;2022-12-18T07:33:56;52.00;;;17.75;;
62848;SDS011;48941;49.516;8.286;2022-12-18T07:36:24;51.85;;;18.13;;
62848;SDS011;48941;49.516;8.286;2022-12-18T07:38:52;53.00;;;17.50;;
62848;SDS011;48941;49.516;8.286;2022-12-18T07:41:20;51.28;;;18.38;;
62848;SDS011;48941;49.516;8.286;2022-12-18T07:43:49;62.38;;;19.20;;
62848;SDS011;48941;49.516;8.286;2022-12-18T07:46:17;49.80;;;16.83;;
62848;SDS011;48941;49.516;8.286;2022-12-18T07:48:45;45.45;;;15.95;;
62848;SDS011;48941;49.516;8.286;2022-12-18T07:51:15;47.90;;;17.02;;
62848;SDS011;48941;49.516;8.286;2022-12-18T07:53:43;56.20;;;18.48;;
62848;SDS011;48941;49.516;8.286;2022-12-18T07:56:14;54.38;;;17.52;;
62848;SDS011;48941;49.516;8.286;2022-12-18T07:58:54;46.13;;;17.15;;
62848;SDS011;48941;49.516;8.286;2022-12-18T08:01:22;49.92;;;17.17;;
62848;SDS011;48941;49.516;8.286;2022-12-18T08:03:51;51.38;;;18.55;;
62848;SDS011;48941;49.516;8.286;2022-12-18T08:06:19;53.38;;;17.92;;
62848;SDS011;48941;49.516;8.286;2022-12-18T08:08:50;47.92;;;18.00;;
62848;SDS011;48941;49.516;8.286;2022-12-18T08:11:18;54.80;;;18.63;;
62848;SDS011;48941;49.516;8.286;2022-12-18T08:13:46;61.22;;;18.90;;
62848;SDS011;48941;49.516;8.286;2022-12-18T08:16:16;63.40;;;19.10;;
62848;SDS011;48941;49.516;8.286;2022-12-18T08:18:45;58.38;;;19.85;;
62848;SDS011;48941;49.516;8.286;2022-12-18T08:21:15;56.72;;;19.17;;
62848;SDS011;48941;49.516;8.286;2022-12-18T08:23:47;49.13;;;16.88;;
62848;SDS011;48941;49.516;8.286;2022-12-18T08:26:17;50.80;;;19.77;;
62848;SDS011;48941;49.516;8.286;2022-12-18T08:28:46;56.35;;;20.77;;
62848;SDS011;48941;49.516;8.286;2022-12-18T08:31:16;56.85;;;20.05;;
62848;SDS011;48941;49.516;8.286;2022-12-18T08:33:45;55.05;;;18.80;;
62848;SDS011;48941;49.516;8.286;2022-12-18T08:36:15;49.90;;;18.52;;
62848;SDS011;48941;49.516;8.286;2022-12-18T08:38:43;57.42;;;19.13;;
62848;SDS011;48941;49.516;8.286;2022-12-18T08:41:13;57.75;;;20.00;;
62848;SDS011;48941;49.516;8.286;2022-12-18T08:43:42;51.65;;;18.90;;
62848;SDS011;48941;49.516;8.286;2022-12-18T08:46:31;54.65;;;18.83;;
62848;SDS011;48941;49.516;8.286;2022-12-18T08:49:01;58.30;;;20.92;;
62848;SDS011;48941;49.516;8.286;2022-12-18T08:51:31;57.40;;;22.55;;
62848;SDS011;48941;49.516;8.286;2022-12-18T08:54:00;78.40;;;29.27;;
62848;SDS011;48941;49.516;8.286;2022-12-18T08:56:29;69.95;;;24.35;;
62848;SDS011;48941;49.516;8.286;2022-12-18T08:58:57;63.90;;;20.55;;
62848;SDS011;48941;49.516;8.286;2022-12-18T09:01:25;60.58;;;22.17;;
62848;SDS011;48941;49.516;8.286;2022-12-18T09:03:55;64.78;;;20.77;;
62848;SDS011;48941;49.516;8.286;2022-12-18T09:06:23;60.35;;;20.67;;
62848;SDS011;48941;49.516;8.286;2022-12-18T09:08:52;64.82;;;21.92;;
62848;SDS011;48941;49.516;8.286;2022-12-18T09:11:21;63.80;;;21.65;;
62848;SDS011;48941;49.516;8.286;2022-12-18T09:13:50;61.00;;;20.88;;
62848;SDS011;48941;49.516;8.286;2022-12-18T09:16:18;62.47;;;23.00;;
62848;SDS011;48941;49.516;8.286;2022-12-18T09:18:52;63.78;;;23.20;;
62848;SDS011;48941;49.516;8.286;2022-12-18T09:23:55;62.25;;;22.40;;
62848;SDS011;48941;49.516;8.286;2022-12-18T09:26:24;62.47;;;21.33;;
62848;SDS011;48941;49.516;8.286;2022-12-18T09:28:53;61.75;;;20.50;;
62848;SDS011;48941;49.516;8.286;2022-12-18T09:31:22;51.35;;;20.33;;
62848;SDS011;48941;49.516;8.286;2022-12-18T09:33:51;49.58;;;19.00;;
62848;SDS011;48941;49.516;8.286;2022-12-18T09:36:19;64.75;;;24.70;;
62848;SDS011;48941;49.516;8.286;2022-12-18T09:38:48;64.07;;;23.60;;
62848;SDS011;48941;49.516;8.286;2022-12-18T09:41:19;54.47;;;21.63;;
62848;SDS011;48941;49.516;8.286;2022-12-18T09:44:00;55.35;;;22.25;;
62848;SDS011;48941;49.516;8.286;2022-12-18T09:46:30;62.00;;;22.70;;
62848;SDS011;48941;49.516;8.286;2022-12-18T09:49:05;57.55;;;21.92;;
62848;SDS011;48941;49.516;8.286;2022-12-18T09:51:44;54.70;;;21.38;;
62848;SDS011;48941;49.516;8.286;2022-12-18T09:54:18;63.63;;;21.17;;
62848;SDS011;48941;49.516;8.286;2022-12-18T09:56:49;61.90;;;23.27;;
62848;SDS011;48941;49.516;8.286;2022-12-18T09:59:22;59.13;;;23.00;;
62848;SDS011;48941;49.516;8.286;2022-12-18T10:01:53;68.55;;;23.17;;
62848;SDS011;48941;49.516;8.286;2022-12-18T10:04:21;58.83;;;22.42;;
62848;SDS011;48941;49.516;8.286;2022-12-18T10:06:52;55.25;;;21.15;;
62848;SDS011;48941;49.516;8.286;2022-12-18T10:09:37;67.55;;;23.17;;
62848;SDS011;48941;49.516;8.286;2022-12-18T10:12:10;62.53;;;22.25;;
62848;SDS011;48941;49.516;8.286;2022-12-18T10:14:46;65.03;;;22.40;;
62848;SDS011;48941;49.516;8.286;2022-12-18T10:17:23;68.75;;;23.80;;
62848;SDS011;48941;49.516;8.286;2022-12-18T10:19:59;67.20;;;22.58;;
62848;SDS011;48941;49.516;8.286;2022-12-18T10:22:33;67.85;;;22.58;;
62848;SDS011;48941;49.516;8.286;2022-12-18T10:25:14;59.30;;;21.83;;
62848;SDS011;48941;49.516;8.286;2022-12-18T10:27:47;65.78;;;21.90;;
62848;SDS011;48941;49.516;8.286;2022-12-18T10:30:19;66.97;;;24.52;;
62848;SDS011;48941;49.516;8.286;2022-12-18T10:32:49;67.80;;;24.30;;
62848;SDS011;48941;49.516;8.286;2022-12-18T10:35:18;67.78;;;25.13;;
62848;SDS011;48941;49.516;8.286;2022-12-18T10:38:04;75.28;;;22.88;;
62848;SDS011;48941;49.516;8.286;2022-12-18T10:40:47;63.35;;;21.70;;
62848;SDS011;48941;49.516;8.286;2022-12-18T10:43:19;59.13;;;22.70;;
62848;SDS011;48941;49.516;8.286;2022-12-18T10:46:00;59.80;;;22.80;;
62848;SDS011;48941;49.516;8.286;2022-12-18T10:48:31;59.88;;;21.48;;
62848;SDS011;48941;49.516;8.286;2022-12-18T10:51:00;57.13;;;21.92;;
62848;SDS011;48941;49.516;8.286;2022-12-18T10:53:38;57.63;;;22.27;;
62848;SDS011;48941;49.516;8.286;2022-12-18T10:56:10;54.20;;;20.45;;
62848;SDS011;48941;49.516;8.286;2022-12-18T10:58:38;54.00;;;21.50;;
62848;SDS011;48941;49.516;8.286;2022-12-18T11:01:08;61.42;;;22.02;;
62848;SDS011;48941;49.516;8.286;2022-12-18T11:03:38;61.88;;;21.92;;
62848;SDS011;48941;49.516;8.286;2022-12-18T11:06:09;53.60;;;21.88;;
62848;SDS011;48941;49.516;8.286;2022-12-18T11:08:38;53.88;;;21.73;;
62848;SDS011;48941;49.516;8.286;2022-12-18T11:11:16;58.00;;;22.92;;
62848;SDS011;48941;49.516;8.286;2022-12-18T11:13:51;57.38;;;22.40;;
62848;SDS011;48941;49.516;8.286;2022-12-18T11:16:26;57.28;;;23.02;;
62848;SDS011;48941;49.516;8.286;2022-12-18T11:19:07;62.55;;;21.80;;
62848;SDS011;48941;49.516;8.286;2022-12-18T11:21:51;61.88;;;22.45;;
62848;SDS011;48941;49.516;8.286;2022-12-18T11:24:20;50.92;;;21.35;;
62848;SDS011;48941;49.516;8.286;2022-12-18T11:26:53;61.17;;;23.00;;
62848;SDS011;48941;49.516;8.286;2022-12-18T11:32:12;52.25;;;20.25;;
62848;SDS011;48941;49.516;8.286;2022-12-18T11:34:57;57.15;;;20.42;;
62848;SDS011;48941;49.516;8.286;2022-12-18T11:37:29;55.75;;;20.85;;
62848;SDS011;48941;49.516;8.286;2022-12-18T11:40:00;67.30;;;23.33;;
62848;SDS011;48941;49.516;8.286;2022-12-18T11:42:32;56.95;;;22.60;;
62848;SDS011;48941;49.516;8.286;2022-12-18T11:45:21;53.00;;;21.55;;
62848;SDS011;48941;49.516;8.286;2022-12-18T11:47:58;58.75;;;21.52;;
62848;SDS011;48941;49.516;8.286;2022-12-18T11:50:33;60.25;;;23.55;;
62848;SDS011;48941;49.516;8.286;2022-12-18T11:53:11;60.38;;;23.50;;
62848;SDS011;48941;49.516;8.286;2022-12-18T11:55:41;53.50;;;22.25;;
62848;SDS011;48941;49.516;8.286;2022-12-18T11:58:21;54.80;;;22.83;;
62848;SDS011;48941;49.516;8.286;2022-12-18T12:01:01;57.60;;;22.38;;
62848;SDS011;48941;49.516;8.286;2022-12-18T12:03:47;55.60;;;20.92;;
62848;SDS011;48941;49.516;8.286;2022-12-18T12:06:35;52.20;;;21.67;;
62848;SDS011;48941;49.516;8.286;2022-12-18T12:09:10;52.33;;;22.60;;
62848;SDS011;48941;49.516;8.286;2022-12-18T12:11:48;67.90;;;27.95;;
62848;SDS011;48941;49.516;8.286;2022-12-18T12:14:36;55.78;;;22.88;;
62848;SDS011;48941;49.516;8.286;2022-12-18T12:17:12;60.42;;;22.23;;
62848;SDS011;48941;49.516;8.286;2022-12-18T12:19:48;53.63;;;22.95;;
62848;SDS011;48941;49.516;8.286;2022-12-18T12:22:23;55.00;;;21.52;;
62848;SDS011;48941;49.516;8.286;2022-12-18T12:25:04;54.10;;;20.88;;
62848;SDS011;48941;49.516;8.286;2022-12-18T12:27:48;54.30;;;22.60;;
62848;SDS011;48941;49.516;8.286;2022-12-18T12:30:29;61.13;;;23.48;;
62848;SDS011;48941;49.516;8.286;2022-12-18T12:33:05;57.20;;;24.05;;
62848;SDS011;48941;49.516;8.286;2022-12-18T12:35:46;52.90;;;23.33;;
62848;SDS011;48941;49.516;8.286;2022-12-18T12:38:24;56.20;;;23.42;;
62848;SDS011;48941;49.516;8.286;2022-12-18T12:40:58;58.63;;;23.40;;
62848;SDS011;48941;49.516;8.286;2022-12-18T12:43:32;60.70;;;23.83;;
62848;SDS011;48941;49.516;8.286;2022-12-18T12:46:09;58.33;;;24.27;;
62848;SDS011;48941;49.516;8.286;2022-12-18T12:48:40;74.85;;;32.28;;
62848;SDS011;48941;49.516;8.286;2022-12-18T12:51:14;56.70;;;24.50;;
62848;SDS011;48941;49.516;8.286;2022-12-18T12:53:45;58.08;;;24.48;;
62848;SDS011;48941;49.516;8.286;2022-12-18T12:56:14;63.40;;;25.38;;
62848;SDS011;48941;49.516;8.286;2022-12-18T12:58:46;98.63;;;41.65;;
62848;SDS011;48941;49.516;8.286;2022-12-18T13:01:27;80.30;;;33.75;;
62848;SDS011;48941;49.516;8.286;2022-12-18T13:04:02;67.22;;;26.35;;
62848;SDS011;48941;49.516;8.286;2022-12-18T13:06:37;66.15;;;25.70;;
62848;SDS011;48941;49.516;8.286;2022-12-18T13:09:11;60.08;;;24.80;;
62848;SDS011;48941;49.516;8.286;2022-12-18T13:11:40;58.95;;;26.45;;
62848;SDS011;48941;49.516;8.286;2022-12-18T13:14:28;59.10;;;23.77;;
62848;SDS011;48941;49.516;8.286;2022-12-18T13:17:21;55.75;;;23.40;;
62848;SDS011;48941;49.516;8.286;2022-12-18T13:20:08;62.75;;;26.38;;
62848;SDS011;48941;49.516;8.286;2022-12-18T13:22:42;63.90;;;26.77;;
62848;SDS011;48941;49.516;8.286;2022-12-18T13:25:28;62.70;;;25.23;;
62848;SDS011;48941;49.516;8.286;2022-12-18T13:28:06;63.17;;;24.85;;
62848;SDS011;48941;49.516;8.286;2022-12-18T13:30:46;62.90;;;25.95;;
62848;SDS011;48941;49.516;8.286;2022-12-18T13:33:40;63.92;;;25.42;;
62848;SDS011;48941;49.516;8.286;2022-12-18T13:36:31;55.35;;;23.83;;
62848;SDS011;48941;49.516;8.286;2022-12-18T13:42:34;61.95;;;26.13;;
62848;SDS011;48941;49.516;8.286;2022-12-18T13:45:37;63.35;;;26.65;;
62848;SDS011;48941;49.516;8.286;2022-12-18T13:48:14;59.90;;;25.98;;
62848;SDS011;48941;49.516;8.286;2022-12-18T13:50:49;61.33;;;26.20;;
62848;SDS011;48941;49.516;8.286;2022-12-18T13:53:21;67.63;;;27.15;;
62848;SDS011;48941;49.516;8.286;2022-12-18T13:55:53;64.82;;;27.02;;
62848;SDS011;48941;49.516;8.286;2022-12-18T13:58:22;69.57;;;28.67;;
62848;SDS011;48941;49.516;8.286;2022-12-18T14:00:50;71.28;;;27.55;;
62848;SDS011;48941;49.516;8.286;2022-12-18T14:03:19;68.25;;;28.67;;
62848;SDS011;48941;49.516;8.286;2022-12-18T14:05:55;66.75;;;28.90;;
62848;SDS011;48941;49.516;8.286;2022-12-18T14:08:27;70.10;;;27.33;;
62848;SDS011;48941;49.516;8.286;2022-12-18T14:11:01;68.90;;;28.95;;
62848;SDS011;48941;49.516;8.286;2022-12-18T14:13:35;63.65;;;25.25;;
62848;SDS011;48941;49.516;8.286;2022-12-18T14:16:06;69.30;;;27.35;;
62848;SDS011;48941;49.516;8.286;2022-12-18T14:18:38;67.95;;;27.92;;
62848;SDS011;48941;49.516;8.286;2022-12-18T14:21:18;64.57;;;27.27;;
62848;SDS011;48941;49.516;8.286;2022-12-18T14:23:49;71.28;;;27.73;;
62848;SDS011;48941;49.516;8.286;2022-12-18T14:26:31;62.10;;;27.42;;
62848;SDS011;48941;49.516;8.286;2022-12-18T14:29:00;63.15;;;25.83;;
62848;SDS011;48941;49.516;8.286;2022-12-18T14:31:45;66.90;;;28.15;;
62848;SDS011;48941;49.516;8.286;2022-12-18T14:34:15;59.72;;;26.33;;
62848;SDS011;48941;49.516;8.286;2022-12-18T14:36:52;66.75;;;27.83;;
62848;SDS011;48941;49.516;8.286;2022-12-18T14:39:22;64.60;;;27.13;;
62848;SDS011;48941;49.516;8.286;2022-12-18T14:41:52;66.85;;;27.42;;
62848;SDS011;48941;49.516;8.286;2022-12-18T14:44:21;64.65;;;26.60;;
62848;SDS011;48941;49.516;8.286;2022-12-18T14:46:49;61.70;;;25.88;;
62848;SDS011;48941;49.516;8.286;2022-12-18T14:49:21;65.93;;;27.45;;
62848;SDS011;48941;49.516;8.286;2022-12-18T14:51:53;67.63;;;27.55;;
62848;SDS011;48941;49.516;8.286;2022-12-18T14:54:23;65.03;;;26.38;;
62848;SDS011;48941;49.516;8.286;2022-12-18T14:56:54;70.57;;;28.42;;
62848;SDS011;48941;49.516;8.286;2022-12-18T14:59:27;68.68;;;29.98;;
62848;SDS011;48941;49.516;8.286;2022-12-18T15:01:58;60.10;;;26.40;;
62848;SDS011;48941;49.516;8.286;2022-12-18T15:04:31;70.63;;;27.95;;